KISP/ISP METAR and TAF weather

Enter ICAO airport designator
Station Type Date Time Source
KISP METAR 2020/06/05 12:56 UTC NOAA

KISP 051256Z 22009KT 10SM SCT007 OVC019 19/18 A2994 RMK SLP140 T01940183


Station Type Date Time Source
KISP Decoded METAR 2020/06/05 12:56 UTC NOAA

ISLIP LONG ISLAND MAC ART, NY, United States (KISP) 40-48N 073-06W 43M
Jun 05, 2020 - 08:56 AM EDT / 2020.06.05 1256 UTC
Wind: from the SW (220 degrees) at 10 MPH (9 KT):0
Visibility: 10 mile(s):0
Sky conditions: overcast
Temperature: 66.9 F (19.4 C)
Dew Point: 64.9 F (18.3 C)
Relative Humidity: 93%
Pressure (altimeter): 29.94 in. Hg (1013 hPa)
ob: KISP 051256Z 22009KT 10SM SCT007 OVC019 19/18 A2994 RMK SLP140 T01940183
cycle: 13

Station Type Date Time Source
KISP TAF 2020/06/05 12:48 UTC NOAA

TAF
AMD KISP 051146Z 0512/0612 21008KT P6SM SCT005 BKN050
TEMPO 0512/0514 BKN005
FM051600 21009KT P6SM SCT050 BKN100
FM052000 21007KT P6SM VCSH FEW025 BKN050
FM052300 18006KT 5SM SHRA BR VCTS SCT007 BKN025 OVC040CB
FM060300 19005KT 3SM -SHRA BR BKN007
FM060600 20005KT 3SM BR VCSH BKN005

Example: see airport list